Time;durP1;ratioP1;P1;durP2;ratioP2;P2;SDS_P1;SDS_P2;PMS_P1;PMS_P2;Temp;Humidity;BMP_temperature;BMP_pressure;BME280_temperature;BME280_humidity;BME280_pressure;Samples;Min_cycle;Max_cycle;Signal;HPM_P1;HPM_P2
2021/07/11 00:02:01;;;;;;;199.93;73.30;;;;;;;;;;5065270;28;20421;-75
2021/07/11 00:04:27;;;;;;;327.20;91.70;;;;;;;;;;5057762;28;20704;-75
2021/07/11 00:06:53;;;;;;;281.53;85.57;;;;;;;;;;5059770;28;20410;-75
2021/07/11 00:09:19;;;;;;;315.90;90.30;;;;;;;;;;5057784;28;20401;-75
2021/07/11 00:11:45;;;;;;;268.30;84.80;;;;;;;;;;5073219;28;20873;-74
2021/07/11 00:14:11;;;;;;;287.40;86.60;;;;;;;;;;5071406;28;20901;-74
2021/07/11 00:16:37;;;;;;;293.43;85.33;;;;;;;;;;5062034;28;20900;-74
2021/07/11 00:19:03;;;;;;;339.33;97.80;;;;;;;;;;5053597;28;20899;-74
2021/07/11 00:21:29;;;;;;;314.43;90.50;;;;;;;;;;5053526;28;20384;-75
2021/07/11 00:23:55;;;;;;;347.53;94.13;;;;;;;;;;5054867;28;20424;-74
2021/07/11 00:26:21;;;;;;;308.90;87.33;;;;;;;;;;5061206;28;20774;-75
2021/07/11 00:28:47;;;;;;;297.90;86.70;;;;;;;;;;5067547;28;20468;-75
2021/07/11 00:31:14;;;;;;;309.50;84.77;;;;;;;;;;5067363;28;20964;-75
2021/07/11 00:33:40;;;;;;;319.40;88.57;;;;;;;;;;5053396;28;20418;-74
2021/07/11 00:36:06;;;;;;;294.33;86.37;;;;;;;;;;5053624;28;20450;-75
2021/07/11 00:38:32;;;;;;;356.20;92.30;;;;;;;;;;5055428;28;20394;-74
2021/07/11 00:40:59;;;;;;;423.87;105.97;;;;;;;;;;5051613;28;20411;-74
2021/07/11 00:43:25;;;;;;;318.73;89.33;;;;;;;;;;5063675;28;20428;-75
2021/07/11 00:45:52;;;;;;;310.77;88.20;;;;;;;;;;5066353;28;20456;-75
2021/07/11 00:48:18;;;;;;;265.03;81.77;;;;;;;;;;5073169;28;20381;-75
2021/07/11 00:50:45;;;;;;;274.43;83.93;;;;;;;;;;5056934;28;20912;-75
2021/07/11 00:53:11;;;;;;;256.67;79.30;;;;;;;;;;5053532;28;20391;-75
2021/07/11 00:55:38;;;;;;;281.67;85.13;;;;;;;;;;5053224;28;20433;-74
2021/07/11 00:58:04;;;;;;;262.17;81.73;;;18.50;1.00;;;;;;5063047;28;20807;-74
2021/07/11 01:00:31;;;;;;;265.73;81.93;;;;;;;;;;5071202;28;20512;-74
2021/07/11 01:03:04;;;;;;;267.57;79.93;;;;;;;;;;5052821;28;20396;-75
2021/07/11 01:05:30;;;;;;;290.60;82.87;;;;;;;;;;5060637;28;20426;-74
2021/07/11 01:07:56;;;;;;;270.47;81.77;;;;;;;;;;5060686;28;20407;-74
2021/07/11 01:10:43;;;;;;;285.17;83.97;;;18.40;1.00;;;;;;5063871;28;20528;-74
2021/07/11 01:13:12;;;;;;;267.57;79.23;;;18.30;1.00;;;;;;5072333;28;20384;-74
2021/07/11 01:15:40;;;;;;;293.47;84.60;;;18.30;1.00;;;;;;5053493;28;20445;-75
2021/07/11 01:18:08;;;;;;;295.07;85.40;;;;;;;;;;5072370;28;20418;-74
2021/07/11 01:20:58;;;;;;;264.83;79.73;;;18.30;1.00;;;;;;5072875;28;20832;-74
2021/07/11 01:23:39;;;;;;;271.40;80.77;;;;;;;;;;5010818;28;20440;-75
2021/07/11 01:26:07;;;;;;;206.27;71.37;;;;;;;;;;5005271;28;20979;-75
2021/07/11 01:28:34;;;;;;;264.50;78.67;;;;;;;;;;5000020;28;20433;-75
2021/07/11 01:31:00;;;;;;;252.13;76.07;;;;;;;;;;5006964;28;20951;-74
2021/07/11 01:33:28;;;;;;;210.37;70.03;;;18.20;1.00;;;;;;5002601;28;20473;-74
2021/07/11 01:35:54;;;;;;;227.10;72.83;;;;;;;;;;5009035;28;20478;-75
2021/07/11 01:38:22;;;;;;;219.10;71.07;;;18.30;1.00;;;;;;5000806;28;20393;-74
2021/07/11 01:40:49;;;;;;;239.90;77.43;;;18.30;1.00;;;;;;5006838;28;20638;-75
2021/07/11 01:43:22;;;;;;;265.93;78.40;;;;;;;;;;5010071;28;20407;-75
2021/07/11 01:45:50;;;;;;;245.80;78.43;;;18.30;1.00;;;;;;5008821;28;20443;-74
2021/07/11 01:48:16;;;;;;;252.27;75.70;;;;;;;;;;4997601;28;20439;-74
2021/07/11 01:50:42;;;;;;;227.93;73.90;;;;;;;;;;4992837;28;20505;-74
2021/07/11 01:53:09;;;;;;;222.63;72.77;;;;;;;;;;4998702;28;20479;-74
2021/07/11 01:55:35;;;;;;;254.37;77.80;;;18.30;1.00;;;;;;5013318;28;20488;-74
2021/07/11 01:58:01;;;;;;;229.00;75.37;;;;;;;;;;5008788;28;20429;-74
2021/07/11 02:00:28;;;;;;;256.53;76.77;;;;;;;;;;5026409;28;20573;-74
2021/07/11 02:02:55;;;;;;;258.03;77.83;;;;;;;;;;5069055;28;20421;-74
2021/07/11 02:05:21;;;;;;;232.33;74.43;;;;;;;;;;5062962;28;20417;-74
2021/07/11 02:07:47;;;;;;;224.10;71.07;;;;;;;;;;5064448;28;20413;-74
2021/07/11 02:10:17;;;;;;;218.83;72.10;;;18.30;1.00;;;;;;5074548;28;20412;-74
2021/07/11 02:12:57;;;;;;;252.23;77.67;;;18.30;1.00;;;;;;5075577;28;20688;-74
2021/07/11 02:15:29;;;;;;;240.80;74.60;;;;;;;;;;5076165;28;20382;-75
2021/07/11 02:17:58;;;;;;;246.47;75.30;;;18.30;1.00;;;;;;5069459;28;20431;-74
2021/07/11 02:20:25;;;;;;;210.60;68.70;;;18.20;1.00;;;;;;5056066;28;20455;-75
2021/07/11 02:22:54;;;;;;;218.50;70.63;;;18.20;1.00;;;;;;5055956;28;20408;-75
2021/07/11 02:25:21;;;;;;;199.87;67.37;;;18.30;1.00;;;;;;5068296;28;20403;-75
2021/07/11 02:27:49;;;;;;;246.70;77.33;;;;;;;;;;5057706;28;20436;-74
2021/07/11 02:30:18;;;;;;;218.10;70.77;;;18.30;1.00;;;;;;5054370;28;20399;-74
2021/07/11 02:32:51;;;;;;;212.40;69.57;;;18.30;1.00;;;;;;5088299;28;20441;-74
2021/07/11 02:35:20;;;;;;;243.90;73.37;;;;;;;;;;5056572;28;20759;-74
2021/07/11 02:37:47;;;;;;;219.27;69.30;;;;;;;;;;5075019;28;20391;-75
2021/07/11 02:40:14;;;;;;;211.10;69.33;;;18.30;1.00;;;;;;5056076;28;20412;-74
2021/07/11 02:42:41;;;;;;;208.60;68.80;;;;;;;;;;5054262;28;20401;-74
2021/07/11 02:45:07;;;;;;;249.03;75.50;;;;;;;;;;5055304;28;20866;-74
2021/07/11 02:47:35;;;;;;;254.03;71.77;;;;;;;;;;5072763;28;20422;-74
2021/07/11 02:50:03;;;;;;;235.83;74.07;;;18.20;1.00;;;;;;5069848;28;20737;-74
2021/07/11 02:52:30;;;;;;;249.83;74.97;;;;;;;;;;5068212;28;20459;-74
2021/07/11 02:55:04;;;;;;;214.77;69.40;;;18.10;1.00;;;;;;5074187;28;20502;-74
2021/07/11 02:57:32;;;;;;;220.03;70.03;;;18.10;1.00;;;;;;5075408;28;20402;-74
2021/07/11 02:59:59;;;;;;;224.77;72.60;;;;;;;;;;5060870;28;20415;-74
2021/07/11 03:02:26;;;;;;;232.83;71.70;;;18.10;1.00;;;;;;5058868;28;20398;-74
2021/07/11 03:04:53;;;;;;;250.23;74.43;;;;;;;;;;5055576;28;20814;-74
2021/07/11 03:07:19;;;;;;;209.13;67.23;;;;;;;;;;5058262;28;20408;-74
2021/07/11 03:09:46;;;;;;;222.90;69.50;;;;;;;;;;5064658;28;20404;-74
2021/07/11 03:12:13;;;;;;;215.57;68.83;;;;;;;;;;5074865;28;20469;-74
2021/07/11 03:14:39;;;;;;;219.93;71.10;;;;;;;;;;5055683;28;20406;-74
2021/07/11 03:17:06;;;;;;;280.07;74.93;;;;;;;;;;5067388;28;20382;-74
2021/07/11 03:19:36;;;;;;;254.17;75.77;;;;;;;;;;5067811;28;20484;-74
2021/07/11 03:22:02;;;;;;;230.47;72.87;;;;;;;;;;5055081;28;20715;-74
2021/07/11 03:24:30;;;;;;;220.17;68.53;;;;;;;;;;5055365;28;20796;-75
2021/07/11 03:26:56;;;;;;;242.07;75.07;;;;;;;;;;5068615;28;20910;-75
2021/07/11 03:29:35;;;;;;;238.17;71.10;;;17.90;1.00;;;;;;5067759;28;20776;-74
2021/07/11 03:32:01;;;;;;;231.00;71.73;;;;;;;;;;5054906;28;20513;-74
2021/07/11 03:34:30;;;;;;;266.00;76.80;;;17.90;1.00;;;;;;5054993;28;20443;-75
2021/07/11 03:36:58;;;;;;;235.93;71.20;;;;;;;;;;5054435;28;20929;-74
2021/07/11 03:39:25;;;;;;;231.77;70.90;;;;;;;;;;5056497;28;20419;-74
2021/07/11 03:41:53;;;;;;;224.30;67.47;;;17.90;1.00;;;;;;5057566;28;20471;-74
2021/07/11 03:44:20;;;;;;;234.50;71.10;;;;;;;;;;5054700;28;20408;-74
2021/07/11 03:46:48;;;;;;;262.70;74.57;;;17.90;1.00;;;;;;5054433;28;20412;-75
2021/07/11 03:49:17;;;;;;;222.83;72.60;;;17.90;1.00;;;;;;5053297;28;20493;-74
2021/07/11 03:51:44;;;;;;;211.13;68.33;;;;;;;;;;5052835;28;21072;-75
2021/07/11 03:54:11;;;;;;;219.63;69.57;;;;;;;;;;5057834;28;20399;-74
2021/07/11 03:56:38;;;;;;;224.63;69.50;;;;;;;;;;5072157;28;20399;-74
2021/07/11 03:59:06;;;;;;;203.93;68.13;;;17.90;1.00;;;;;;5073888;28;20418;-74
2021/07/11 04:01:34;;;;;;;224.27;69.80;;;;;;;;;;5064363;28;20446;-74
2021/07/11 04:04:02;;;;;;;238.90;71.10;;;;;;;;;;5054382;28;20428;-74
2021/07/11 04:06:31;;;;;;;250.90;72.87;;;17.90;1.00;;;;;;5053775;28;20736;-74
2021/07/11 04:08:57;;;;;;;229.43;71.40;;;;;;;;;;5055271;28;20501;-74
2021/07/11 04:11:24;;;;;;;223.33;70.70;;;;;;;;;;5059590;28;20479;-74
2021/07/11 04:13:50;;;;;;;231.37;72.10;;;;;;;;;;5073587;28;20427;-74
2021/07/11 04:16:17;;;;;;;211.17;69.17;;;;;;;;;;5068728;28;20400;-74
2021/07/11 04:18:49;;;;;;;226.67;71.00;;;17.90;1.00;;;;;;5054016;28;20498;-74
2021/07/11 04:21:16;;;;;;;226.20;71.80;;;17.90;1.00;;;;;;5055986;28;20415;-75
2021/07/11 04:23:44;;;;;;;210.60;69.07;;;17.90;1.00;;;;;;5073590;28;20399;-75
2021/07/11 04:26:12;;;;;;;218.27;69.80;;;17.90;1.00;;;;;;5072500;28;20441;-74
2021/07/11 04:28:42;;;;;;;204.90;67.70;;;17.90;1.00;;;;;;5071918;28;20419;-74
2021/07/11 04:31:08;;;;;;;212.70;70.80;;;;;;;;;;5062734;28;21013;-74
2021/07/11 04:33:35;;;;;;;232.47;73.43;;;;;;;;;;5072041;28;20481;-74
2021/07/11 04:36:04;;;;;;;226.97;69.67;;;17.90;1.00;;;;;;5053772;28;20474;-74
2021/07/11 04:38:30;;;;;;;221.70;69.90;;;;;;;;;;5064734;28;20385;-74
2021/07/11 04:40:57;;;;;;;226.67;72.10;;;;;;;;;;5060401;28;21048;-74
2021/07/11 04:43:23;;;;;;;225.93;69.30;;;;;;;;;;5053379;28;20409;-74
2021/07/11 04:45:49;;;;;;;218.10;70.10;;;;;;;;;;5054023;28;20745;-75
2021/07/11 04:48:15;;;;;;;225.83;70.67;;;18.00;1.00;;;;;;5072762;28;20983;-74
2021/07/11 04:50:43;;;;;;;236.10;69.37;;;;;;;;;;5062574;28;20412;-74
2021/07/11 04:53:09;;;;;;;240.53;73.77;;;;;;;;;;5067180;28;20965;-74
2021/07/11 04:55:35;;;;;;;268.20;77.13;;;;;;;;;;5067867;28;20406;-73
2021/07/11 04:58:01;;;;;;;231.00;68.83;;;;;;;;;;5073057;28;20857;-74
2021/07/11 05:00:32;;;;;;;220.33;71.00;;;;;;;;;;5057977;28;20425;-75
2021/07/11 05:02:58;;;;;;;231.87;73.17;;;;;;;;;;5054124;28;20882;-74
2021/07/11 05:05:24;;;;;;;252.77;73.40;;;;;;;;;;5053352;28;20859;-74
2021/07/11 05:07:50;;;;;;;235.70;74.17;;;;;;;;;;5052932;28;20403;-74
2021/07/11 05:10:16;;;;;;;236.70;72.63;;;;;;;;;;5058397;28;20415;-74
2021/07/11 05:12:42;;;;;;;244.43;74.83;;;;;;;;;;5052001;28;20470;-74
2021/07/11 05:15:09;;;;;;;239.13;75.53;;;;;;;;;;5052675;28;20880;-74
2021/07/11 05:17:35;;;;;;;256.60;75.60;;;;;;;;;;5068520;28;20860;-74
2021/07/11 05:20:01;;;;;;;246.50;78.03;;;;;;;;;;5068601;28;20494;-74
2021/07/11 05:22:27;;;;;;;258.30;74.30;;;;;;;;;;5052440;28;20797;-74
2021/07/11 05:24:53;;;;;;;292.40;80.00;;;;;;;;;;5061166;28;20917;-74
2021/07/11 05:27:19;;;;;;;255.43;76.07;;;;;;;;;;5072642;28;20435;-74
2021/07/11 05:29:45;;;;;;;259.90;76.57;;;;;;;;;;5070543;28;20370;-74
2021/07/11 05:32:11;;;;;;;290.33;81.70;;;;;;;;;;5058330;28;20562;-74
2021/07/11 05:34:37;;;;;;;238.67;74.60;;;;;;;;;;5053021;28;20897;-74
2021/07/11 05:37:04;;;;;;;283.03;79.33;;;;;;;;;;5052437;28;20388;-74
2021/07/11 05:39:30;;;;;;;243.83;73.20;;;;;;;;;;5072377;28;20448;-74
2021/07/11 05:41:56;;;;;;;279.93;75.83;;;;;;;;;;5051415;28;20892;-74
2021/07/11 05:44:22;;;;;;;271.80;75.37;;;;;;;;;;5052134;28;20410;-74
2021/07/11 05:46:48;;;;;;;242.20;74.10;;;;;;;;;;5065214;28;20427;-74
2021/07/11 05:49:14;;;;;;;260.13;73.30;;;;;;;;;;5072632;28;20373;-74
2021/07/11 05:51:40;;;;;;;250.57;75.30;;;;;;;;;;5060998;28;21052;-74
2021/07/11 05:54:06;;;;;;;277.53;79.20;;;;;;;;;;5072356;28;20396;-74
2021/07/11 05:56:32;;;;;;;289.63;80.07;;;;;;;;;;5052493;28;20380;-75
2021/07/11 05:58:59;;;;;;;311.37;81.70;;;;;;;;;;5051999;28;20428;-74
2021/07/11 06:01:25;;;;;;;250.60;75.53;;;;;;;;;;5059981;28;20412;-74
2021/07/11 06:03:51;;;;;;;266.10;78.47;;;;;;;;;;5052559;28;20749;-74
2021/07/11 06:06:17;;;;;;;256.27;74.67;;;;;;;;;;5052462;28;20417;-74
2021/07/11 06:08:43;;;;;;;256.40;75.50;;;;;;;;;;5051545;28;20404;-74
2021/07/11 06:11:09;;;;;;;295.47;81.33;;;;;;;;;;5060292;28;20507;-74
2021/07/11 06:13:35;;;;;;;293.30;82.50;;;;;;;;;;5057372;28;20508;-75
2021/07/11 06:16:01;;;;;;;277.27;78.50;;;;;;;;;;5066754;28;20423;-74
2021/07/11 06:18:28;;;;;;;290.40;78.80;;;;;;;;;;5071626;28;20770;-74
2021/07/11 06:20:54;;;;;;;284.87;79.40;;;;;;;;;;5062209;28;20810;-74
2021/07/11 06:23:20;;;;;;;283.87;79.60;;;;;;;;;;5070318;28;20477;-74
2021/07/11 06:25:46;;;;;;;275.97;76.77;;;;;;;;;;5071615;28;20404;-74
2021/07/11 06:28:12;;;;;;;304.53;83.50;;;;;;;;;;5057442;28;20791;-74
2021/07/11 06:30:38;;;;;;;309.30;85.27;;;;;;;;;;5053916;28;20835;-74
2021/07/11 06:33:04;;;;;;;291.93;82.13;;;;;;;;;;5056821;28;20466;-74
2021/07/11 06:35:32;;;;;;;272.60;79.77;;;;;;;;;;5057499;28;20443;-74
2021/07/11 06:37:58;;;;;;;280.53;79.40;;;;;;;;;;5071391;28;20482;-74
2021/07/11 06:40:25;;;;;;;310.40;82.50;;;;;;;;;;5059087;28;20387;-74
2021/07/11 06:42:51;;;;;;;272.73;78.77;;;18.80;99.90;;;;;;5064041;28;20945;-74
2021/07/11 06:45:17;;;;;;;274.50;78.03;;;18.80;99.90;;;;;;5070822;28;20428;-74
2021/07/11 06:47:44;;;;;;;273.90;77.53;;;;;;;;;;5056603;28;20478;-74
2021/07/11 06:50:15;;;;;;;271.70;79.93;;;18.80;99.90;;;;;;5055088;28;20402;-74
2021/07/11 06:52:44;;;;;;;45.53;18.53;;;;;;;;;;5055088;28;20444;-74
2021/07/11 06:55:15;;;;;;;43.07;21.57;;;;;;;;;;5055550;28;20392;-74
2021/07/11 06:57:41;;;;;;;53.97;24.97;;;;;;;;;;5055153;28;20371;-74
2021/07/11 07:00:08;;;;;;;182.33;67.50;;;;;;;;;;5058926;28;20421;-74
2021/07/11 07:02:34;;;;;;;152.13;61.20;;;;;;;;;;5067979;28;20424;-74
2021/07/11 07:05:00;;;;;;;183.97;65.60;;;;;;;;;;5071313;28;20420;-74
2021/07/11 07:07:26;;;;;;;179.47;67.53;;;;;;;;;;5058242;28;20931;-75
2021/07/11 07:09:53;;;;;;;183.73;66.90;;;;;;;;;;5062493;28;20883;-74
2021/07/11 07:12:19;;;;;;;175.33;63.53;;;;;;;;;;5071664;28;20964;-75
2021/07/11 07:14:45;;;;;;;192.67;66.50;;;;;;;;;;5053549;28;20924;-74
2021/07/11 07:17:11;;;;;;;181.17;65.13;;;;;;;;;;5067121;28;20750;-74
2021/07/11 07:19:37;;;;;;;177.77;64.57;;;;;;;;;;5074854;28;20804;-74
2021/07/11 07:22:03;;;;;;;175.27;64.03;;;;;;;;;;5057516;28;20429;-74
2021/07/11 07:24:29;;;;;;;189.27;67.33;;;;;;;;;;5058505;28;20481;-74
2021/07/11 07:26:55;;;;;;;208.33;72.50;;;;;;;;;;5054777;28;20494;-75
2021/07/11 07:29:21;;;;;;;208.03;72.17;;;;;;;;;;5054474;28;20875;-74
2021/07/11 07:31:48;;;;;;;183.30;64.27;;;;;;;;;;5054348;28;20452;-74
2021/07/11 07:34:15;;;;;;;183.97;64.17;;;;;;;;;;5058578;28;20394;-74
2021/07/11 07:36:41;;;;;;;174.47;64.17;;;;;;;;;;5054628;28;20443;-74
2021/07/11 07:39:07;;;;;;;216.97;69.53;;;;;;;;;;5056918;28;20795;-74
2021/07/11 07:41:33;;;;;;;211.20;67.80;;;;;;;;;;5074166;28;20903;-74
2021/07/11 07:43:59;;;;;;;193.47;68.70;;;;;;;;;;5063858;28;20415;-74
2021/07/11 07:46:25;;;;;;;219.70;72.13;;;;;;;;;;5071169;28;20745;-74
2021/07/11 07:48:51;;;;;;;205.13;69.03;;;;;;;;;;5073797;28;20451;-74
2021/07/11 07:51:17;;;;;;;188.67;66.70;;;;;;;;;;5074597;28;20579;-74
2021/07/11 07:53:44;;;;;;;225.87;74.97;;;;;;;;;;5070749;28;20455;-74
2021/07/11 07:56:10;;;;;;;221.30;72.50;;;;;;;;;;5057266;28;20763;-74
2021/07/11 07:58:36;;;;;;;181.53;66.70;;;;;;;;;;5094225;28;20374;-74
2021/07/11 08:01:03;;;;;;;192.30;69.07;;;;;;;;;;5094446;28;20378;-74
2021/07/11 08:03:29;;;;;;;215.43;72.50;;;;;;;;;;5059931;28;20788;-74
2021/07/11 08:05:55;;;;;;;205.33;72.63;;;;;;;;;;5065182;28;20391;-74
2021/07/11 08:08:21;;;;;;;219.70;71.30;;;;;;;;;;5067067;28;20549;-74
2021/07/11 08:10:47;;;;;;;282.73;80.50;;;;;;;;;;5053656;28;20394;-74
2021/07/11 08:13:13;;;;;;;223.20;74.40;;;;;;;;;;5053534;28;20452;-74
2021/07/11 08:15:39;;;;;;;170.20;63.90;;;;;;;;;;5053668;28;20429;-74
2021/07/11 08:18:06;;;;;;;199.77;70.20;;;;;;;;;;5053730;28;20815;-74
2021/07/11 08:20:32;;;;;;;200.20;70.67;;;;;;;;;;5053975;28;20444;-74
2021/07/11 08:22:58;;;;;;;226.27;75.40;;;;;;;;;;5070002;28;20398;-73
2021/07/11 08:25:24;;;;;;;201.37;69.80;;;;;;;;;;5052150;28;20465;-74
2021/07/11 08:27:56;;;;;;;227.90;74.20;;;;;;;;;;5054355;28;20763;-80
2021/07/11 08:33:44;;;;;;;228.10;75.03;;;;;;;;;;5054169;28;20956;-83
2021/07/11 08:36:14;;;;;;;254.77;75.70;;;;;;;;;;5053609;28;20409;-81
2021/07/11 08:39:19;;;;;;;209.53;68.83;;;20.20;99.90;;;;;;5052332;28;20422;-83
2021/07/11 08:42:14;;;;;;;228.57;75.27;;;20.30;99.90;;;;;;5052493;28;20416;-82
2021/07/11 08:44:56;;;;;;;238.20;77.40;;;;;;;;;;5052350;28;20814;-82
2021/07/11 08:47:32;;;;;;;235.70;76.30;;;;;;;;;;5061156;28;20380;-82
2021/07/11 08:49:58;;;;;;;26.23;23.50;;;;;;;;;;5068256;28;20456;-84
2021/07/11 08:52:34;;;;;;;44.30;33.00;;;;;;;;;;5073167;28;20461;-79
2021/07/11 08:55:00;;;;;;;69.87;39.60;;;;;;;;;;5067248;28;20909;-79
2021/07/11 08:57:39;;;;;;;139.40;61.73;;;;;;;;;;5073454;28;20394;-79
2021/07/11 09:00:23;;;;;;;128.73;60.53;;;21.20;99.90;;;;;;5072582;28;20398;-79
2021/07/11 09:03:08;;;;;;;148.63;61.73;;;21.40;99.90;;;;;;5058762;28;20451;-79
2021/07/11 09:05:41;;;;;;;140.07;60.43;;;21.50;99.90;;;;;;5072031;28;20447;-80
2021/07/11 09:08:24;;;;;;;153.73;64.10;;;21.80;99.90;;;;;;5072788;28;20433;-80
2021/07/11 09:10:50;;;;;;;146.40;66.67;;;;;;;;;;5073000;28;20399;-79
2021/07/11 09:13:18;;;;;;;172.33;71.43;;;22.20;99.90;;;;;;5068019;28;20959;-78
2021/07/11 09:15:47;;;;;;;157.27;69.03;;;22.40;99.90;;;;;;5068040;28;20480;-79
2021/07/11 09:18:26;;;;;;;114.70;58.90;;;22.50;99.90;;;;;;5073310;28;20745;-83
2021/07/11 09:21:07;;;;;;;109.57;55.20;;;;;;;;;;5063206;28;20414;-82
2021/07/11 09:23:55;;;;;;;145.93;65.37;;;;;;;;;;5059312;28;20395;-79
2021/07/11 09:26:23;;;;;;;141.63;66.07;;;;;;;;;;5053093;28;20432;-77
2021/07/11 09:29:22;;;;;;;144.63;66.37;;;22.80;99.90;;;;;;5053066;28;20394;-79
2021/07/11 09:31:48;;;;;;;128.33;63.23;;;;;;;;;;5063038;28;20452;-78
2021/07/11 09:34:29;;;;;;;166.27;72.73;;;23.20;99.90;;;;;;5067446;28;20406;-78
2021/07/11 09:37:11;;;;;;;174.93;72.63;;;23.30;99.90;;;;;;5060800;28;20428;-78
2021/07/11 09:39:54;;;;;;;174.03;74.60;;;23.40;99.90;;;;;;5072733;28;20391;-78
2021/07/11 09:42:34;;;;;;;122.30;62.30;;;23.40;99.90;;;;;;5071561;28;20417;-79
2021/07/11 09:45:06;;;;;;;154.63;68.97;;;23.60;99.90;;;;;;5055018;28;20422;-79
2021/07/11 09:47:32;;;;;;;125.93;63.67;;;;;;;;;;5069477;28;20426;-78
2021/07/11 09:50:21;;;;;;;144.37;67.90;;;24.00;99.90;;;;;;5072681;28;20395;-78
2021/07/11 09:52:49;;;;;;;125.07;64.80;;;24.00;99.90;;;;;;5061410;28;20459;-79
2021/07/11 09:55:30;;;;;;;140.10;71.50;;;;;;;;;;5064009;28;20405;-79
2021/07/11 09:58:08;;;;;;;193.70;82.53;;;;;;;;;;5071968;28;20450;-79
2021/07/11 10:00:41;;;;;;;177.20;79.40;;;24.30;99.90;;;;;;5071269;28;20387;-79
2021/07/11 10:03:11;;;;;;;64.53;38.23;;;24.20;99.90;;;;;;5060590;28;20446;-79
2021/07/11 10:05:38;;;;;;;58.60;35.63;;;;;;;;;;5052476;28;20381;-79
2021/07/11 10:08:04;;;;;;;91.53;50.60;;;;;;;;;;5052360;28;20432;-82
2021/07/11 10:10:37;;;;;;;75.33;45.70;;;23.70;99.90;;;;;;5052363;28;20945;-82
2021/07/11 10:13:09;;;;;;;97.70;54.30;;;;;;;;;;5056775;28;20515;-82
2021/07/11 10:15:39;;;;;;;73.00;47.67;;;23.50;99.90;;;;;;5055885;28;20898;-82
2021/07/11 10:18:14;;;;;;;63.37;43.90;;;;;;;;;;5056527;28;20399;-82
2021/07/11 10:20:58;;;;;;;96.60;53.80;;;23.10;99.90;;;;;;5056152;28;20428;-82
2021/07/11 10:23:29;;;;;;;119.83;58.33;;;23.20;99.90;;;;;;5055712;28;20405;-79
2021/07/11 10:26:07;;;;;;;140.47;62.77;;;23.40;99.90;;;;;;5054875;28;20898;-81
2021/07/11 10:28:38;;;;;;;158.20;69.00;;;23.40;99.90;;;;;;5054903;28;20789;-79
2021/07/11 10:31:05;;;;;;;121.17;58.20;;;23.50;99.90;;;;;;5058887;28;20393;-79
2021/07/11 10:33:42;;;;;;;163.20;66.93;;;23.50;99.90;;;;;;5069075;28;20814;-78
2021/07/11 10:36:08;;;;;;;152.97;66.63;;;;;;;;;;5074514;28;20436;-78
2021/07/11 10:38:49;;;;;;;155.63;70.70;;;23.90;99.90;;;;;;5074982;28;20884;-82
2021/07/11 10:41:16;;;;;;;113.20;61.47;;;;;;;;;;5073529;28;20428;-82
2021/07/11 10:43:44;;;;;;;147.40;67.00;;;;;;;;;;5074604;28;20395;-82
2021/07/11 10:46:10;;;;;;;145.67;65.23;;;;;;;;;;5074793;28;20406;-80
2021/07/11 10:48:36;;;;;;;117.50;59.90;;;;;;;;;;5074371;28;20869;-80
2021/07/11 10:51:03;;;;;;;105.20;55.90;;;;;;;;;;5071811;28;20435;-80
2021/07/11 10:53:33;;;;;;;108.83;58.37;;;;;;;;;;5070907;28;20420;-80
2021/07/11 10:55:59;;;;;;;112.63;58.27;;;;;;;;;;5065904;28;20505;-80
2021/07/11 10:58:25;;;;;;;125.00;63.20;;;;;;;;;;5070753;28;20426;-80
2021/07/11 11:00:51;;;;;;;124.40;66.50;;;;;;;;;;5054306;28;20379;-81
2021/07/11 11:03:22;;;;;;;128.60;63.40;;;24.60;99.90;;;;;;5068597;28;20404;-80
2021/07/11 11:05:49;;;;;;;141.30;71.60;;;;;;;;;;5072893;28;20432;-80
2021/07/11 11:08:19;;;;;;;158.47;71.23;;;24.40;99.90;;;;;;5067006;28;20426;-80
2021/07/11 11:10:46;;;;;;;135.40;67.77;;;24.10;99.90;;;;;;5072982;28;20776;-74
2021/07/11 11:13:19;;;;;;;132.63;62.53;;;;;;;;;;5072548;28;20862;-74
2021/07/11 11:15:46;;;;;;;167.17;75.77;;;24.00;99.90;;;;;;5074461;28;20391;-74
2021/07/11 11:18:38;;;;;;;140.20;67.43;;;24.00;99.90;;;;;;5069660;28;20415;-74
2021/07/11 11:21:08;;;;;;;127.93;60.40;;;;;;;;;;4992606;28;20506;-74
2021/07/11 11:23:39;;;;;;;115.37;58.70;;;;;;;;;;5007201;28;20444;-74
2021/07/11 11:26:07;;;;;;;115.30;61.33;;;23.80;99.90;;;;;;5011331;28;20423;-74
2021/07/11 11:28:38;;;;;;;101.77;55.50;;;24.00;99.90;;;;;;4995566;28;20457;-75
2021/07/11 11:31:10;;;;;;;119.07;61.63;;;24.20;99.90;;;;;;5011982;28;20406;-74
2021/07/11 11:33:47;;;;;;;152.07;66.63;;;24.30;99.90;;;;;;5011682;28;20415;-74
2021/07/11 11:36:13;;;;;;;165.63;69.83;;;;;;;;;;5001171;28;20421;-74
2021/07/11 11:38:42;;;;;;;164.03;72.67;;;24.80;99.90;;;;;;5012096;28;20463;-74
2021/07/11 11:41:12;;;;;;;143.03;70.70;;;;;;;;;;5011947;28;20451;-75
2021/07/11 11:43:38;;;;;;;161.83;64.57;;;;;;;;;;5010872;28;20829;-74
2021/07/11 11:46:05;;;;;;;66.53;44.13;;;;;;;;;;5012107;28;20422;-75
2021/07/11 11:48:31;;;;;;;112.27;54.63;;;;;;;;;;5011577;28;20743;-74
2021/07/11 11:51:03;;;;;;;94.60;51.20;;;25.20;99.90;;;;;;5011608;28;20434;-75
2021/07/11 11:53:30;;;;;;;201.60;62.33;;;;;;;;;;4994317;28;20462;-76
2021/07/11 11:55:57;;;;;;;100.47;49.93;;;;;;;;;;5010030;28;20446;-75
2021/07/11 11:58:31;;;;;;;91.60;47.73;;;24.30;99.90;;;;;;5050275;28;20419;-75
2021/07/11 12:01:14;;;;;;;116.77;52.40;;;24.00;99.90;;;;;;5074216;28;20398;-74
2021/07/11 12:03:43;;;;;;;125.57;57.57;;;;;;;;;;5073516;28;20443;-75
2021/07/11 12:06:11;;;;;;;133.60;58.77;;;23.50;99.90;;;;;;5072060;28;20422;-74
2021/07/11 12:08:41;;;;;;;86.57;52.00;;;;;;;;;;5073870;28;20491;-75
2021/07/11 12:11:09;;;;;;;111.53;53.57;;;23.10;99.90;;;;;;5053897;28;20543;-75
2021/07/11 12:13:35;;;;;;;90.73;52.60;;;22.90;99.90;;;;;;5053248;28;20426;-75
2021/07/11 12:16:07;;;;;;;138.97;58.93;;;;;;;;;;5058533;28;20417;-75
2021/07/11 12:18:43;;;;;;;154.10;69.47;;;;;;;;;;5065281;28;20772;-75
2021/07/11 12:21:09;;;;;;;158.03;70.67;;;;;;;;;;5061045;28;20454;-79
2021/07/11 12:23:39;;;;;;;142.67;68.80;;;;;;;;;;5061106;28;20400;-80
2021/07/11 12:26:06;;;;;;;128.77;62.37;;;;;;;;;;5071556;28;20826;-80
2021/07/11 12:28:51;;;;;;;136.63;64.50;;;21.90;99.90;;;;;;5057176;28;20772;-79
2021/07/11 12:31:44;;;;;;;174.23;69.37;;;;;;;;;;5063631;28;20428;-80
2021/07/11 12:34:16;;;;;;;168.63;69.37;;;21.90;99.90;;;;;;5052889;28;20401;-79
2021/07/11 12:36:52;;;;;;;102.77;54.90;;;21.80;99.90;;;;;;5052867;28;20393;-81
2021/07/11 12:39:20;;;;;;;117.93;55.70;;;22.00;99.90;;;;;;5068787;28;20422;-80
2021/07/11 12:41:47;;;;;;;115.23;58.17;;;22.30;99.90;;;;;;5073604;28;20414;-78
2021/07/11 12:44:17;;;;;;;98.20;53.40;;;;;;;;;;5068211;28;20795;-79
2021/07/11 12:46:43;;;;;;;139.63;60.80;;;;;;;;;;5065134;28;20445;-79
2021/07/11 12:49:09;;;;;;;151.37;65.90;;;;;;;;;;5072964;28;20970;-79
2021/07/11 12:51:41;;;;;;;132.03;60.13;;;23.50;99.90;;;;;;5072559;28;20467;-79
2021/07/11 12:54:25;;;;;;;128.43;60.53;;;;;;;;;;5072777;28;20398;-79
2021/07/11 12:56:54;;;;;;;96.67;57.57;;;;;;;;;;5066120;28;20424;-79
2021/07/11 12:59:35;;;;;;;97.63;55.23;;;24.80;99.90;;;;;;5069070;28;20416;-79
2021/07/11 13:02:20;;;;;;;90.17;56.13;;;;;;;;;;5053646;28;20819;-79
2021/07/11 13:05:13;;;;;;;98.20;59.13;;;25.10;99.90;;;;;;5053395;28;20393;-80
2021/07/11 13:07:39;;;;;;;120.07;59.07;;;;;;;;;;5071995;28;20444;-79
2021/07/11 13:10:20;;;;;;;77.03;49.20;;;;;;;;;;5053476;28;20415;-81
2021/07/11 13:12:50;;;;;;;98.17;58.83;;;;;;;;;;5068339;28;20447;-81
2021/07/11 13:15:20;;;;;;;105.07;57.63;;;;;;;;;;5073133;28;20504;-82
2021/07/11 13:18:03;;;;;;;104.67;57.90;;;;;;;;;;5073092;28;20397;-82
2021/07/11 13:20:29;;;;;;;127.70;67.10;;;;;;;;;;5072657;28;20404;-81
2021/07/11 13:22:56;;;;;;;129.97;70.70;;;;;;;;;;5072962;28;20960;-81
2021/07/11 13:25:22;;;;;;;115.53;62.77;;;;;;;;;;5073203;28;20866;-79
2021/07/11 13:27:48;;;;;;;101.37;62.20;;;;;;;;;;5073553;28;20436;-78
2021/07/11 13:30:15;;;;;;;115.03;61.40;;;;;;;;;;5072491;28;20477;-79
2021/07/11 13:33:02;;;;;;;95.47;59.23;;;26.40;99.90;;;;;;5072966;28;20434;-79
2021/07/11 13:38:38;;;;;;;137.20;69.63;;;;;;;;;;5072539;28;20419;-79
2021/07/11 13:41:08;;;;;;;115.57;64.40;;;;;;;;;;5073140;28;20735;-80
2021/07/11 13:43:34;;;;;;;75.80;53.43;;;;;;;;;;5072483;28;20409;-79
2021/07/11 13:46:14;;;;;;;90.77;59.03;;;;;;;;;;5068876;28;20903;-79
2021/07/11 13:48:50;;;;;;;103.90;61.80;;;;;;;;;;5071626;28;20427;-79
2021/07/11 13:51:20;;;;;;;134.37;68.97;;;;;;;;;;5063232;28;20795;-79
2021/07/11 13:53:47;;;;;;;71.93;49.80;;;;;;;;;;5076799;28;20402;-79